Time;durP1;ratioP1;P1;durP2;ratioP2;P2;SDS_P1;SDS_P2;PMS_P1;PMS_P2;Temp;Humidity;BMP_temperature;BMP_pressure;BME280_temperature;BME280_humidity;BME280_pressure;Samples;Min_cycle;Max_cycle;Signal;HPM_P1;HPM_P2
2022/04/16 00:01:27;;;;;;;17.60;11.77;;;9.00;99.90;;;;;;6273343;22;20098;-79
2022/04/16 00:03:52;;;;;;;24.55;12.07;;;9.00;99.90;;;;;;6273660;22;20501;-79
2022/04/16 00:06:18;;;;;;;21.33;11.93;;;9.00;99.90;;;;;;6273995;22;20024;-80
2022/04/16 00:08:47;;;;;;;22.13;11.95;;;9.00;99.90;;;;;;6273951;22;20024;-80
2022/04/16 00:11:14;;;;;;;16.95;11.95;;;9.00;99.90;;;;;;6273446;22;20031;-79
2022/04/16 00:13:54;;;;;;;15.50;11.00;;;9.00;99.90;;;;;;6273900;22;20028;-79
2022/04/16 00:16:21;;;;;;;19.88;12.75;;;9.00;99.90;;;;;;6275613;22;20413;-81
2022/04/16 00:18:50;;;;;;;23.48;12.70;;;8.90;99.90;;;;;;6299693;22;20024;-79
2022/04/16 00:21:15;;;;;;;22.38;13.95;;;8.90;99.90;;;;;;6273856;22;20016;-79
2022/04/16 00:23:42;;;;;;;22.77;13.57;;;8.90;99.90;;;;;;6273605;22;20082;-78
2022/04/16 00:26:09;;;;;;;20.45;13.50;;;8.80;99.90;;;;;;6273990;22;20098;-79
2022/04/16 00:28:35;;;;;;;22.73;13.32;;;8.70;99.90;;;;;;6274023;22;20046;-79
2022/04/16 00:31:02;;;;;;;20.63;12.38;;;8.60;99.90;;;;;;6273932;22;20082;-79
2022/04/16 00:33:31;;;;;;;21.30;13.30;;;8.50;99.90;;;;;;6272740;22;20019;-79
2022/04/16 00:36:06;;;;;;;20.63;13.07;;;8.40;99.90;;;;;;6275700;22;20024;-80
2022/04/16 00:38:37;;;;;;;22.17;11.90;;;8.40;99.90;;;;;;6274171;22;20020;-80
2022/04/16 00:41:11;;;;;;;19.35;12.65;;;8.30;99.90;;;;;;6274235;22;20020;-79
2022/04/16 00:43:37;;;;;;;21.80;12.32;;;8.20;99.90;;;;;;6248734;22;20024;-80
2022/04/16 00:46:07;;;;;;;19.35;12.52;;;8.10;99.90;;;;;;6268484;22;20343;-79
2022/04/16 00:48:33;;;;;;;22.77;15.18;;;8.00;99.90;;;;;;6274058;22;20703;-80
2022/04/16 00:51:02;;;;;;;22.67;12.85;;;7.90;99.90;;;;;;6275676;22;20095;-79
2022/04/16 00:53:28;;;;;;;19.38;12.57;;;7.90;99.90;;;;;;6300198;22;20118;-80
2022/04/16 00:55:56;;;;;;;22.73;14.75;;;7.80;99.90;;;;;;6273528;22;20471;-80
2022/04/16 00:58:22;;;;;;;25.95;14.95;;;7.70;99.90;;;;;;6299532;22;20065;-80
2022/04/16 01:00:50;;;;;;;19.63;13.20;;;7.70;99.90;;;;;;6273720;22;20162;-80
2022/04/16 01:03:17;;;;;;;24.08;13.18;;;7.60;99.90;;;;;;6273349;22;20459;-79
2022/04/16 01:05:46;;;;;;;24.08;14.63;;;7.60;99.90;;;;;;6247780;22;20024;-80
2022/04/16 01:08:22;;;;;;;22.33;13.32;;;7.50;99.90;;;;;;6275446;22;20024;-80
2022/04/16 01:10:51;;;;;;;23.65;13.65;;;7.50;99.90;;;;;;6271171;22;20019;-79
2022/04/16 01:13:18;;;;;;;22.23;13.18;;;7.40;99.90;;;;;;6273072;22;20028;-80
2022/04/16 01:15:46;;;;;;;23.58;13.43;;;7.40;99.90;;;;;;6273082;22;20020;-80
2022/04/16 01:18:12;;;;;;;20.08;11.57;;;7.40;99.90;;;;;;6273296;22;20027;-80
2022/04/16 01:20:41;;;;;;;20.40;13.40;;;7.40;99.90;;;;;;6273585;22;20020;-79
2022/04/16 01:23:08;;;;;;;23.83;13.98;;;7.30;99.90;;;;;;6298337;22;20030;-79
2022/04/16 01:25:36;;;;;;;26.00;15.63;;;7.30;99.90;;;;;;6273659;22;20027;-79
2022/04/16 01:28:02;;;;;;;20.83;14.40;;;7.30;99.90;;;;;;6274705;22;20063;-79
2022/04/16 01:30:28;;;;;;;25.67;16.83;;;7.30;99.90;;;;;;6248066;22;20024;-80
2022/04/16 01:32:54;;;;;;;28.08;14.90;;;7.40;99.90;;;;;;6274601;22;20031;-80
2022/04/16 01:35:35;;;;;;;25.02;15.63;;;7.40;99.90;;;;;;6252344;22;20020;-80
2022/04/16 01:38:09;;;;;;;23.75;14.88;;;7.40;99.90;;;;;;6280008;22;20053;-79
2022/04/16 01:40:41;;;;;;;24.75;15.82;;;7.50;99.90;;;;;;6300577;22;20020;-79
2022/04/16 01:43:07;;;;;;;26.60;15.23;;;7.50;99.90;;;;;;6299135;22;20038;-79
2022/04/16 01:45:33;;;;;;;24.05;14.98;;;7.50;99.90;;;;;;6284813;22;20047;-79
2022/04/16 01:48:03;;;;;;;23.50;15.15;;;7.50;99.90;;;;;;6273284;22;20386;-79
2022/04/16 01:50:29;;;;;;;28.48;16.77;;;7.60;99.90;;;;;;6273000;22;20340;-79
2022/04/16 01:52:57;;;;;;;22.63;14.85;;;7.60;99.90;;;;;;6272550;22;20055;-79
2022/04/16 01:55:23;;;;;;;27.50;14.85;;;7.60;99.90;;;;;;6273210;22;20027;-79
2022/04/16 01:58:08;;;;;;;23.80;14.65;;;7.60;99.90;;;;;;6274491;22;20106;-79
2022/04/16 02:00:35;;;;;;;25.52;15.43;;;7.60;99.90;;;;;;6246530;22;20452;-79
2022/04/16 02:03:46;;;;;;;23.27;14.60;;;7.60;99.90;;;;;;6274624;22;20089;-80
2022/04/16 02:06:17;;;;;;;25.92;14.55;;;7.60;99.90;;;;;;6184978;23;20032;-80
2022/04/16 02:08:44;;;;;;;22.27;14.57;;;7.60;99.90;;;;;;6136553;23;20032;-79
2022/04/16 02:11:10;;;;;;;24.73;14.80;;;7.60;99.90;;;;;;6160487;23;20074;-78
2022/04/16 02:13:36;;;;;;;28.17;16.55;;;7.60;99.90;;;;;;6183872;23;20060;-80
2022/04/16 02:16:03;;;;;;;27.40;15.68;;;7.60;99.90;;;;;;6185492;23;20539;-78
2022/04/16 02:18:29;;;;;;;26.65;15.88;;;7.60;99.90;;;;;;6160718;23;20056;-80
2022/04/16 02:20:55;;;;;;;24.75;16.30;;;7.50;99.90;;;;;;6210563;23;20032;-79
2022/04/16 02:23:21;;;;;;;27.30;16.55;;;7.50;99.90;;;;;;6184715;23;20088;-79
2022/04/16 02:25:46;;;;;;;27.33;15.65;;;7.50;99.90;;;;;;6210228;23;20020;-79
2022/04/16 02:28:13;;;;;;;25.15;14.80;;;7.40;99.90;;;;;;6184719;23;20024;-79
2022/04/16 02:30:40;;;;;;;28.33;15.93;;;7.40;99.90;;;;;;6150203;23;20098;-80
2022/04/16 02:33:14;;;;;;;29.27;16.85;;;7.40;99.90;;;;;;6125659;23;20033;-79
2022/04/16 02:35:41;;;;;;;26.67;16.63;;;7.40;99.90;;;;;;6125821;23;20486;-79
2022/04/16 02:38:11;;;;;;;30.80;17.67;;;7.40;99.90;;;;;;6149270;23;20265;-79
2022/04/16 02:40:37;;;;;;;28.98;16.98;;;7.40;99.90;;;;;;6125454;23;20021;-79
2022/04/16 02:43:03;;;;;;;28.60;17.67;;;7.40;99.90;;;;;;6125715;23;20087;-80
2022/04/16 02:48:18;;;;;;;32.83;18.52;;;7.40;99.90;;;;;;6125187;23;20377;-80
2022/04/16 02:50:44;;;;;;;29.58;19.50;;;7.40;99.90;;;;;;6125887;23;20025;-80
2022/04/16 02:53:11;;;;;;;33.35;19.48;;;7.40;99.90;;;;;;6125319;23;20424;-80
2022/04/16 02:55:37;;;;;;;34.72;21.10;;;7.40;99.90;;;;;;6125308;23;20056;-79
2022/04/16 02:58:21;;;;;;;32.55;21.25;;;7.40;99.90;;;;;;6091442;23;20030;-80
2022/04/16 03:00:48;;;;;;;36.83;20.10;;;7.40;99.90;;;;;;6026658;23;20027;-80
2022/04/16 03:03:15;;;;;;;37.28;22.63;;;7.40;99.90;;;;;;6125702;23;20017;-80
2022/04/16 03:05:41;;;;;;;32.95;21.40;;;7.40;99.90;;;;;;6126034;23;20029;-80
2022/04/16 03:08:12;;;;;;;32.47;21.33;;;7.40;99.90;;;;;;6150218;23;20061;-80
2022/04/16 03:10:38;;;;;;;37.10;22.95;;;7.40;99.90;;;;;;6214948;23;20558;-79
2022/04/16 03:13:04;;;;;;;34.95;21.85;;;7.40;99.90;;;;;;6240306;23;20020;-80
2022/04/16 03:18:18;;;;;;;37.08;24.17;;;7.40;99.90;;;;;;6215021;23;20131;-80
2022/04/16 03:20:49;;;;;;;42.75;23.45;;;7.40;99.90;;;;;;6190285;23;20021;-79
2022/04/16 03:23:21;;;;;;;40.80;24.67;;;7.40;99.90;;;;;;6215467;23;20493;-80
2022/04/16 03:26:02;;;;;;;44.45;24.45;;;7.40;99.90;;;;;;6216831;23;20055;-79
2022/04/16 03:28:29;;;;;;;39.72;24.38;;;7.40;99.90;;;;;;6194732;22;20089;-79
2022/04/16 03:31:17;;;;;;;37.13;22.50;;;7.40;99.90;;;;;;6297664;22;20027;-80
2022/04/16 03:33:43;;;;;;;38.00;22.98;;;7.50;99.90;;;;;;6246462;22;20062;-80
2022/04/16 03:36:14;;;;;;;35.80;22.05;;;7.50;99.90;;;;;;6271920;22;20024;-81
2022/04/16 03:38:40;;;;;;;42.03;24.08;;;7.50;99.90;;;;;;6272000;22;20023;-80
2022/04/16 03:41:06;;;;;;;43.05;25.40;;;7.50;99.90;;;;;;6272119;22;20016;-79
2022/04/16 03:43:59;;;;;;;38.28;24.42;;;7.60;99.90;;;;;;6297422;22;20028;-80
2022/04/16 03:46:25;;;;;;;38.08;24.67;;;7.60;99.90;;;;;;6214449;23;20371;-80
2022/04/16 03:48:50;;;;;;;41.60;24.10;;;7.60;99.90;;;;;;6213839;23;20035;-80
2022/04/16 03:51:17;;;;;;;42.90;25.75;;;7.70;99.90;;;;;;6214659;23;20079;-80
2022/04/16 03:53:45;;;;;;;37.03;23.85;;;7.70;99.90;;;;;;6214339;23;20349;-80
2022/04/16 04:01:49;;;;;;;36.75;21.85;;;7.80;99.90;;;;;;6214143;23;20020;-80
2022/04/16 04:04:15;;;;;;;32.22;20.77;;;7.90;99.90;;;;;;6214712;23;20441;-81
2022/04/16 04:06:41;;;;;;;39.38;21.48;;;7.90;99.90;;;;;;6189630;23;20028;-80
2022/04/16 04:09:11;;;;;;;34.60;21.35;;;7.90;99.90;;;;;;6215932;23;20024;-80
2022/04/16 04:11:44;;;;;;;34.05;20.98;;;7.90;99.90;;;;;;6211566;23;20028;-81
2022/04/16 04:14:10;;;;;;;33.75;22.85;;;7.90;99.90;;;;;;6214417;23;20069;-81
2022/04/16 04:16:39;;;;;;;33.03;21.85;;;8.00;99.90;;;;;;6220588;22;20077;-80
2022/04/16 04:19:05;;;;;;;34.33;22.52;;;8.00;99.90;;;;;;6271963;22;20036;-81
2022/04/16 04:21:38;;;;;;;30.02;19.90;;;8.00;99.90;;;;;;6297103;22;20026;-80
2022/04/16 04:24:04;;;;;;;31.95;20.17;;;8.00;99.90;;;;;;6271734;22;20024;-80
2022/04/16 04:26:30;;;;;;;32.67;20.48;;;8.00;99.90;;;;;;6246224;22;20494;-80
2022/04/16 04:28:58;;;;;;;34.22;20.77;;;8.10;99.90;;;;;;6272338;22;20027;-80
2022/04/16 04:31:36;;;;;;;37.55;23.05;;;8.10;99.90;;;;;;6295779;22;20023;-80
2022/04/16 04:34:06;;;;;;;38.38;24.38;;;8.10;99.90;;;;;;6271517;22;20394;-79
2022/04/16 04:36:35;;;;;;;42.60;27.13;;;8.10;99.90;;;;;;6272508;22;20033;-80
2022/04/16 04:39:00;;;;;;;44.35;26.00;;;8.00;99.90;;;;;;6273705;22;20027;-79
2022/04/16 04:41:27;;;;;;;42.45;25.88;;;8.00;99.90;;;;;;6273175;22;20016;-80
2022/04/16 04:43:56;;;;;;;46.65;29.20;;;8.10;99.90;;;;;;6273913;22;20020;-79
2022/04/16 04:46:22;;;;;;;45.00;28.65;;;8.00;99.90;;;;;;6273753;22;20071;-80
2022/04/16 04:48:51;;;;;;;47.97;29.05;;;8.00;99.90;;;;;;6298108;22;20082;-81
2022/04/16 04:51:17;;;;;;;47.10;30.27;;;8.00;99.90;;;;;;6216216;23;20435;-80
2022/04/16 04:53:43;;;;;;;39.75;25.95;;;8.00;99.90;;;;;;6241676;23;20028;-79
2022/04/16 04:56:09;;;;;;;48.72;29.27;;;7.90;99.90;;;;;;6241773;23;20082;-80
2022/04/16 04:58:36;;;;;;;43.95;26.90;;;7.90;99.90;;;;;;6241989;23;20027;-80
2022/04/16 05:01:05;;;;;;;48.30;28.77;;;7.80;99.90;;;;;;6191977;23;20066;-79
2022/04/16 05:03:32;;;;;;;49.78;30.42;;;7.80;99.90;;;;;;6191435;23;20106;-79
2022/04/16 05:06:03;;;;;;;49.55;30.38;;;7.80;99.90;;;;;;6216268;23;20027;-79
2022/04/16 05:08:29;;;;;;;53.50;30.15;;;7.80;99.90;;;;;;6241328;23;20024;-79
2022/04/16 05:10:55;;;;;;;48.55;29.40;;;7.80;99.90;;;;;;6216034;23;20056;-80
2022/04/16 05:13:20;;;;;;;46.20;28.85;;;7.80;99.90;;;;;;6241242;23;20050;-80
2022/04/16 05:15:48;;;;;;;44.83;29.00;;;7.70;99.90;;;;;;6241074;23;20332;-79
2022/04/16 05:18:16;;;;;;;46.78;28.75;;;7.70;99.90;;;;;;6215255;23;20064;-80
2022/04/16 05:20:42;;;;;;;40.25;26.08;;;7.70;99.90;;;;;;6215699;23;20110;-79
2022/04/16 05:23:09;;;;;;;43.95;27.17;;;7.70;99.90;;;;;;6264785;22;20031;-80
2022/04/16 05:25:35;;;;;;;43.50;26.50;;;7.70;99.90;;;;;;6247483;22;20019;-80
2022/04/16 05:28:02;;;;;;;41.00;25.35;;;7.70;99.90;;;;;;6273129;22;20046;-79
2022/04/16 05:30:38;;;;;;;43.40;25.48;;;7.70;99.90;;;;;;6272813;22;20325;-80
2022/04/16 05:34:18;;;;;;;41.45;25.05;;;7.70;99.90;;;;;;6273102;22;20478;-80
2022/04/16 05:35:56;;;;;;;36.17;24.35;;;7.80;99.90;;;;;;6271618;22;20489;-79
2022/04/16 05:38:27;;;;;;;42.60;26.10;;;7.80;99.90;;;;;;6273092;22;20024;-80
2022/04/16 05:40:52;;;;;;;43.83;25.42;;;7.80;99.90;;;;;;6272883;22;20019;-79
2022/04/16 05:43:23;;;;;;;45.00;27.80;;;7.80;99.90;;;;;;6246347;22;20106;-79
2022/04/16 05:45:48;;;;;;;45.20;28.48;;;7.80;99.90;;;;;;6272844;22;20015;-79
2022/04/16 05:48:16;;;;;;;42.20;26.92;;;7.90;99.90;;;;;;6272531;22;20031;-81
2022/04/16 05:50:42;;;;;;;40.05;23.42;;;7.90;99.90;;;;;;6273490;22;20438;-79
2022/04/16 05:53:11;;;;;;;37.92;25.08;;;7.90;99.90;;;;;;6273232;22;20031;-79
2022/04/16 05:55:47;;;;;;;38.55;24.95;;;7.90;99.90;;;;;;6187343;23;20030;-79
2022/04/16 05:58:16;;;;;;;36.58;23.33;;;7.90;99.90;;;;;;6139260;23;20475;-80
2022/04/16 06:00:43;;;;;;;37.90;23.30;;;8.00;99.90;;;;;;6186010;23;20096;-79
2022/04/16 06:03:09;;;;;;;35.05;20.90;;;8.10;99.90;;;;;;6164015;23;20024;-79
2022/04/16 06:05:38;;;;;;;32.53;22.10;;;8.10;99.90;;;;;;6190405;23;20020;-80
2022/04/16 06:08:23;;;;;;;34.47;20.45;;;8.30;99.90;;;;;;6207102;23;20031;-79
2022/04/16 06:10:51;;;;;;;31.75;21.48;;;8.40;99.90;;;;;;6165919;23;20022;-80
2022/04/16 06:13:22;;;;;;;34.30;21.67;;;8.50;99.90;;;;;;6091975;23;20029;-79
2022/04/16 06:15:48;;;;;;;30.92;20.35;;;8.60;99.90;;;;;;6104144;23;20399;-79
2022/04/16 06:18:27;;;;;;;35.83;20.00;;;8.70;99.90;;;;;;6105602;23;20029;-80
2022/04/16 06:20:56;;;;;;;36.58;20.95;;;8.70;99.90;;;;;;6151280;23;20088;-80
2022/04/16 06:23:22;;;;;;;30.80;19.70;;;8.60;99.90;;;;;;6126212;23;20071;-81
2022/04/16 06:25:51;;;;;;;32.70;20.60;;;8.60;99.90;;;;;;6126308;23;20030;-80
2022/04/16 06:28:19;;;;;;;29.23;19.63;;;8.70;99.90;;;;;;6150182;23;20110;-80
2022/04/16 06:30:58;;;;;;;26.88;17.17;;;8.80;99.90;;;;;;6103891;23;20122;-79
2022/04/16 06:33:23;;;;;;;28.63;18.48;;;8.70;99.90;;;;;;6158292;23;20085;-81
2022/04/16 06:35:53;;;;;;;30.23;19.17;;;8.70;99.90;;;;;;6215012;23;20024;-79
2022/04/16 06:38:19;;;;;;;30.95;18.83;;;8.70;99.90;;;;;;6214624;23;20020;-80
2022/04/16 06:40:45;;;;;;;30.38;19.08;;;8.70;99.90;;;;;;6217017;22;20480;-81
2022/04/16 06:43:11;;;;;;;27.70;17.20;;;8.80;99.90;;;;;;6272734;22;20032;-81
2022/04/16 06:45:54;;;;;;;31.05;19.70;;;8.80;99.90;;;;;;6273842;22;20027;-80
2022/04/16 06:48:20;;;;;;;27.55;19.25;;;8.70;99.90;;;;;;6298492;22;20030;-83
2022/04/16 06:50:46;;;;;;;28.05;18.33;;;8.70;99.90;;;;;;6272283;22;20068;-79
2022/04/16 06:53:15;;;;;;;28.52;18.92;;;8.70;99.90;;;;;;6272321;22;20397;-80
2022/04/16 06:55:44;;;;;;;32.20;19.08;;;8.80;99.90;;;;;;6272258;22;20103;-81
2022/04/16 06:58:11;;;;;;;29.10;18.08;;;8.80;99.90;;;;;;6272299;22;20030;-80
2022/04/16 07:00:37;;;;;;;28.65;18.48;;;8.90;99.90;;;;;;6246519;22;20024;-81
2022/04/16 07:03:02;;;;;;;27.50;19.02;;;9.00;99.90;;;;;;6272433;22;20045;-81
2022/04/16 07:05:31;;;;;;;29.50;18.63;;;8.90;99.90;;;;;;6271751;22;20095;-81
2022/04/16 07:07:59;;;;;;;31.75;18.63;;;9.00;99.90;;;;;;6272399;22;20388;-81
2022/04/16 07:10:27;;;;;;;28.08;18.08;;;9.00;99.90;;;;;;6272831;22;20020;-80
2022/04/16 07:12:54;;;;;;;28.48;17.58;;;9.00;99.90;;;;;;6272037;22;20468;-81
2022/04/16 07:15:20;;;;;;;28.88;18.35;;;8.90;99.90;;;;;;6274760;22;20026;-81
2022/04/16 07:17:46;;;;;;;26.33;17.60;;;8.90;99.90;;;;;;6274936;22;20459;-81
2022/04/16 07:20:14;;;;;;;27.73;17.58;;;9.00;99.90;;;;;;6274253;22;20031;-82
2022/04/16 07:22:43;;;;;;;28.70;18.23;;;9.30;99.90;;;;;;6248082;22;20024;-81
2022/04/16 07:25:10;;;;;;;31.63;19.27;;;9.60;99.90;;;;;;6232472;22;20059;-80
2022/04/16 07:27:37;;;;;;;28.05;16.98;;;9.80;99.90;;;;;;6211765;23;20025;-80
2022/04/16 07:30:04;;;;;;;24.38;17.05;;;10.00;99.90;;;;;;6215991;23;20044;-81
2022/04/16 07:32:30;;;;;;;24.35;16.33;;;10.20;99.90;;;;;;6217771;23;20028;-80
2022/04/16 07:35:06;;;;;;;24.58;16.65;;;10.30;99.90;;;;;;6239763;23;20119;-81
2022/04/16 07:37:35;;;;;;;24.52;17.52;;;10.40;99.90;;;;;;6213825;23;20020;-80
2022/04/16 07:40:01;;;;;;;27.73;17.00;;;10.50;99.90;;;;;;6213275;23;20489;-79
2022/04/16 07:42:32;;;;;;;25.02;15.80;;;10.50;99.90;;;;;;6212257;23;20078;-83
2022/04/16 07:45:05;;;;;;;22.95;15.98;;;10.60;99.90;;;;;;6237728;23;20083;-81
2022/04/16 07:47:31;;;;;;;22.88;15.90;;;10.70;99.90;;;;;;6213755;23;20322;-80
2022/04/16 07:49:57;;;;;;;24.85;15.95;;;10.80;99.90;;;;;;6212203;23;20060;-81
2022/04/16 07:52:25;;;;;;;24.77;15.43;;;10.80;99.90;;;;;;6186583;23;20059;-80
2022/04/16 07:54:53;;;;;;;26.55;15.65;;;10.90;99.90;;;;;;6211719;23;20411;-81
2022/04/16 07:57:19;;;;;;;26.42;15.05;;;10.90;99.90;;;;;;6211587;23;20024;-81
2022/04/16 07:59:45;;;;;;;24.95;14.68;;;11.00;99.90;;;;;;6213116;23;20028;-81
2022/04/16 08:02:11;;;;;;;20.38;13.35;;;11.00;99.90;;;;;;6211690;23;20024;-81
2022/04/16 08:04:50;;;;;;;21.45;13.80;;;11.00;99.90;;;;;;6213785;23;20060;-81
2022/04/16 08:07:16;;;;;;;23.00;14.48;;;11.20;99.90;;;;;;6213522;23;20036;-79
2022/04/16 08:09:42;;;;;;;22.00;12.57;;;11.30;99.90;;;;;;6211897;23;20020;-79
2022/04/16 08:12:08;;;;;;;22.63;12.85;;;11.40;99.90;;;;;;6186384;23;20024;-82
2022/04/16 08:14:34;;;;;;;19.70;11.07;;;11.50;99.90;;;;;;6215285;23;20456;-81
2022/04/16 08:17:00;;;;;;;17.25;11.55;;;11.60;99.90;;;;;;6213813;23;20032;-81
2022/04/16 08:19:29;;;;;;;19.50;10.43;;;11.70;99.90;;;;;;6213504;23;20394;-81
2022/04/16 08:21:57;;;;;;;16.45;10.25;;;11.80;99.90;;;;;;6213631;23;20032;-81
2022/04/16 08:26:54;;;;;;;16.40;9.88;;;12.10;99.90;;;;;;6213076;23;20024;-81
2022/04/16 08:29:27;;;;;;;16.48;9.20;;;12.20;99.90;;;;;;6212942;23;20606;-81
2022/04/16 08:31:59;;;;;;;14.38;9.10;;;12.30;99.90;;;;;;6237185;23;20021;-80
2022/04/16 08:34:26;;;;;;;13.05;8.38;;;12.40;99.90;;;;;;6214849;23;20035;-82
2022/04/16 08:36:53;;;;;;;15.32;8.23;;;12.50;99.90;;;;;;6187583;23;20086;-81
2022/04/16 08:39:21;;;;;;;15.45;7.88;;;12.50;99.90;;;;;;6212696;23;20532;-80
2022/04/16 08:41:49;;;;;;;14.68;8.80;;;12.60;99.90;;;;;;6163309;23;20496;-80
2022/04/16 08:44:19;;;;;;;13.65;8.48;;;12.70;99.90;;;;;;6212629;23;20024;-80
2022/04/16 08:46:46;;;;;;;11.77;7.60;;;12.70;99.90;;;;;;6212461;23;20021;-81
2022/04/16 08:49:15;;;;;;;13.52;8.70;;;12.70;99.90;;;;;;6237956;23;20025;-82
2022/04/16 08:51:43;;;;;;;13.48;6.68;;;12.70;99.90;;;;;;6238398;23;20035;-79
2022/04/16 08:54:09;;;;;;;16.00;7.82;;;12.60;99.90;;;;;;6233836;23;20029;-80
2022/04/16 08:56:39;;;;;;;11.23;7.38;;;12.90;99.90;;;;;;6214869;23;20056;-82
2022/04/16 08:59:06;;;;;;;13.73;7.75;;;13.10;99.90;;;;;;6212710;23;20106;-81
2022/04/16 09:01:34;;;;;;;11.68;7.18;;;13.00;99.90;;;;;;6187311;23;20411;-82
2022/04/16 09:04:01;;;;;;;11.93;7.20;;;13.00;99.60;;;;;;6209300;23;20024;-81
2022/04/16 09:06:28;;;;;;;11.07;6.00;;;13.10;99.90;;;;;;6214970;23;20024;-84
2022/04/16 09:08:54;;;;;;;11.27;6.82;;;13.40;99.90;;;;;;6212718;23;20063;-81
2022/04/16 09:11:24;;;;;;;12.20;6.50;;;13.20;98.80;;;;;;6213099;23;20017;-82
2022/04/16 09:13:49;;;;;;;11.93;6.13;;;13.20;97.90;;;;;;6214575;23;20055;-83
2022/04/16 09:16:16;;;;;;;9.43;5.47;;;13.40;98.80;;;;;;6187354;23;20071;-81
2022/04/16 09:18:50;;;;;;;10.65;6.32;;;13.50;97.90;;;;;;6214402;23;20027;-82
2022/04/16 09:21:19;;;;;;;13.88;6.22;;;13.40;96.30;;;;;;6212321;23;20096;-82
2022/04/16 09:23:51;;;;;;;9.93;5.53;;;13.50;97.60;;;;;;6213068;23;20031;-80
2022/04/16 09:26:35;;;;;;;13.65;6.45;;;13.50;96.50;;;;;;6213461;23;20025;-81
2022/04/16 09:29:18;;;;;;;10.65;5.63;;;13.50;96.40;;;;;;6214048;23;20028;-81
2022/04/16 09:31:46;;;;;;;9.07;4.80;;;13.70;96.40;;;;;;6205386;23;20055;-79
2022/04/16 09:34:17;;;;;;;12.00;5.32;;;13.50;95.30;;;;;;6212266;23;20502;-82
2022/04/16 09:36:48;;;;;;;7.30;4.15;;;13.50;94.40;;;;;;6237091;23;20020;-82
2022/04/16 09:39:15;;;;;;;7.93;4.25;;;13.70;94.70;;;;;;6212020;23;20021;-82
2022/04/16 09:41:44;;;;;;;7.93;4.57;;;13.90;94.20;;;;;;6187844;23;20044;-80
2022/04/16 09:44:25;;;;;;;10.25;4.90;;;14.10;94.20;;;;;;6211796;23;20096;-82
2022/04/16 09:46:53;;;;;;;7.38;3.92;;;14.30;93.40;;;;;;6213849;23;20031;-82
2022/04/16 09:49:24;;;;;;;11.48;4.55;;;14.70;94.00;;;;;;6214190;23;20032;-81
2022/04/16 09:52:00;;;;;;;6.00;3.38;;;14.90;92.50;;;;;;6211092;23;20364;-82
2022/04/16 09:54:28;;;;;;;7.68;3.53;;;15.00;92.00;;;;;;6212610;23;20099;-79
2022/04/16 09:57:01;;;;;;;6.50;3.10;;;15.10;86.60;;;;;;6214444;23;20028;-81
2022/04/16 09:59:35;;;;;;;6.22;3.00;;;15.00;85.90;;;;;;6186503;23;20460;-81
2022/04/16 10:02:03;;;;;;;4.85;2.55;;;14.80;79.60;;;;;;6212084;23;20024;-82
2022/04/16 10:04:30;;;;;;;7.30;3.53;;;14.80;79.30;;;;;;6213722;23;20024;-81
2022/04/16 10:06:56;;;;;;;5.70;2.88;;;14.90;81.20;;;;;;6212298;23;20025;-81
2022/04/16 10:09:26;;;;;;;7.72;3.45;;;15.00;83.60;;;;;;6237714;23;20276;-82
2022/04/16 10:14:52;;;;;;;7.38;2.92;;;15.50;79.60;;;;;;6211191;23;20024;-81
2022/04/16 10:17:42;;;;;;;6.25;2.85;;;15.60;73.40;;;;;;6213285;23;20348;-82
2022/04/16 10:20:20;;;;;;;4.13;2.10;;;15.70;70.00;;;;;;6211538;23;20024;-82
2022/04/16 10:23:27;;;;;;;4.22;2.20;;;15.90;70.80;;;;;;6187217;23;20088;-81
2022/04/16 10:26:03;;;;;;;4.57;2.22;;;16.00;61.00;;;;;;6124125;23;20334;-82
2022/04/16 10:28:53;;;;;;;4.90;2.25;;;16.10;63.90;;;;;;6126613;23;20022;-82
2022/04/16 10:31:30;;;;;;;5.60;2.72;;;16.00;64.10;;;;;;6150764;23;20036;-83
2022/04/16 10:34:20;;;;;;;3.97;1.95;;;16.10;59.40;;;;;;6150038;23;20034;-82
2022/04/16 10:36:52;;;;;;;4.88;2.53;;;16.00;64.10;;;;;;6125489;23;20088;-81
2022/04/16 10:39:19;;;;;;;11.93;3.03;;;16.40;62.70;;;;;;6150371;23;20381;-81
2022/04/16 10:42:05;;;;;;;3.30;1.90;;;16.40;62.40;;;;;;6149297;23;20025;-82
2022/04/16 10:44:43;;;;;;;5.20;1.70;;;16.70;58.20;;;;;;6125577;23;20029;-81
2022/04/16 10:47:16;;;;;;;4.43;1.40;;;16.80;58.50;;;;;;6150484;23;20022;-81
2022/04/16 10:49:46;;;;;;;6.57;0.80;;;17.00;56.20;;;;;;6125580;23;20136;-81
2022/04/16 10:52:19;;;;;;;3.25;0.80;;;16.90;49.80;;;;;;6150246;23;20091;-81
2022/04/16 10:54:48;;;;;;;3.85;1.10;;;16.80;47.20;;;;;;6100930;23;20120;-82
2022/04/16 10:57:22;;;;;;;2.95;1.15;;;16.80;48.40;;;;;;6193227;23;20100;-81
2022/04/16 10:59:59;;;;;;;3.72;1.00;;;16.80;47.90;;;;;;6187223;23;20036;-82
2022/04/16 11:02:28;;;;;;;1.88;0.73;;;16.70;46.90;;;;;;6211949;23;20025;-83
2022/04/16 11:05:13;;;;;;;3.05;1.40;;;16.90;47.60;;;;;;6212001;23;20025;-82
2022/04/16 11:07:42;;;;;;;3.35;1.40;;;17.00;46.50;;;;;;6211583;23;20021;-81
2022/04/16 11:10:09;;;;;;;2.25;1.00;;;17.20;48.30;;;;;;6212773;23;20060;-81
2022/04/16 11:12:43;;;;;;;3.10;1.00;;;17.50;47.80;;;;;;6215392;23;20027;-83
2022/04/16 11:15:14;;;;;;;3.13;1.20;;;17.80;44.70;;;;;;6221212;23;20024;-81
2022/04/16 11:17:43;;;;;;;4.75;1.33;;;17.80;45.50;;;;;;6236328;23;20053;-81
2022/04/16 11:20:10;;;;;;;3.75;1.42;;;17.80;44.20;;;;;;6212009;23;20027;-81
2022/04/16 11:23:10;;;;;;;2.95;1.00;;;18.10;44.00;;;;;;6211352;23;20020;-81
2022/04/16 11:34:44;;;;;;;3.38;1.00;;;18.90;42.30;;;;;;6096429;23;20022;-81
2022/04/16 11:37:13;;;;;;;3.72;1.00;;;18.80;41.20;;;;;;6096894;23;20075;-83
2022/04/16 11:39:39;;;;;;;3.30;1.40;;;19.00;40.40;;;;;;6097495;23;20022;-81
2022/04/16 11:42:11;;;;;;;2.63;0.93;;;18.90;40.30;;;;;;6074353;23;20030;-83
2022/04/16 11:44:42;;;;;;;3.05;1.10;;;19.10;40.40;;;;;;6096927;23;20069;-82
2022/04/16 11:47:26;;;;;;;3.45;1.02;;;19.20;39.90;;;;;;6122370;23;20037;-83
2022/04/16 11:50:03;;;;;;;4.05;1.10;;;19.20;38.50;;;;;;6123309;23;20041;-82
2022/04/16 11:52:32;;;;;;;;;;;19.40;38.80;;;;;;6123565;23;20105;-82
2022/04/16 11:55:10;;;;;;;2.10;0.82;;;19.60;39.80;;;;;;6074289;23;20011;-82
2022/04/16 11:57:54;;;;;;;3.63;1.13;;;19.70;37.50;;;;;;6179803;23;20025;-83
2022/04/16 12:00:23;;;;;;;2.03;0.75;;;19.80;37.70;;;;;;6156436;23;20021;-83
2022/04/16 12:02:55;;;;;;;8.07;1.17;;;20.30;37.10;;;;;;6174756;23;20448;-81
2022/04/16 12:05:27;;;;;;;3.58;1.50;;;20.30;36.90;;;;;;6215533;23;20397;-80
2022/04/16 12:07:53;;;;;;;7.05;1.30;;;20.50;36.50;;;;;;6212750;23;20021;-81
2022/04/16 12:10:24;;;;;;;3.30;1.15;;;20.80;37.70;;;;;;6216061;23;20031;-83
2022/04/16 12:12:53;;;;;;;2.97;1.27;;;21.30;37.00;;;;;;6213860;23;20432;-83
2022/04/16 12:15:27;;;;;;;2.97;0.63;;;21.30;35.70;;;;;;6188869;23;20024;-81
2022/04/16 12:17:54;;;;;;;3.05;0.80;;;21.30;35.90;;;;;;6214987;23;20040;-82
2022/04/16 12:20:22;;;;;;;2.13;0.80;;;21.30;35.00;;;;;;6237918;23;20466;-81
2022/04/16 12:23:02;;;;;;;3.00;0.70;;;20.90;34.80;;;;;;6211973;23;20020;-80
2022/04/16 12:26:25;;;;;;;1.85;0.70;;;21.30;35.10;;;;;;6104567;23;20062;-82
2022/04/16 12:28:52;;;;;;;2.45;0.80;;;21.70;32.80;;;;;;6097546;23;20101;-83
2022/04/16 12:31:29;;;;;;;3.53;1.00;;;21.60;33.80;;;;;;6121956;23;20022;-81
2022/04/16 12:33:56;;;;;;;2.40;0.70;;;21.80;33.10;;;;;;6121992;23;20057;-81
2022/04/16 12:36:22;;;;;;;2.97;1.00;;;21.90;33.90;;;;;;6097628;23;20093;-84
2022/04/16 12:38:47;;;;;;;2.20;0.88;;;21.90;33.00;;;;;;6121969;23;20180;-82
2022/04/16 12:41:13;;;;;;;2.03;0.60;;;22.30;33.00;;;;;;6097560;23;20033;-83
2022/04/16 12:43:40;;;;;;;3.03;1.85;;;22.20;33.00;;;;;;6121971;23;20101;-83
2022/04/16 12:46:06;;;;;;;2.78;0.93;;;22.40;32.20;;;;;;6121775;23;20022;-82
2022/04/16 12:48:32;;;;;;;3.47;1.23;;;22.90;31.30;;;;;;6097551;23;20033;-82
2022/04/16 12:50:58;;;;;;;2.92;0.98;;;23.60;33.40;;;;;;6121897;23;20045;-82
2022/04/16 12:53:24;;;;;;;5.70;1.10;;;24.00;32.60;;;;;;6096793;23;20500;-82
2022/04/16 12:55:54;;;;;;;2.22;0.90;;;24.10;32.00;;;;;;6097561;23;20094;-82
2022/04/16 12:58:20;;;;;;;4.30;1.25;;;24.10;32.00;;;;;;6095922;23;20029;-80
2022/04/16 13:00:48;;;;;;;4.00;1.10;;;24.60;32.00;;;;;;6073397;23;20025;-81
2022/04/16 13:03:25;;;;;;;4.15;1.52;;;25.40;32.60;;;;;;6163687;23;20114;-81
2022/04/16 13:05:52;;;;;;;3.00;0.93;;;26.10;30.70;;;;;;6187217;23;20025;-80
2022/04/16 13:08:32;;;;;;;3.17;1.02;;;26.20;30.60;;;;;;6151265;23;20022;-82
2022/04/16 13:11:07;;;;;;;4.32;1.75;;;25.70;30.00;;;;;;6147221;23;20055;-81
2022/04/16 13:13:33;;;;;;;3.95;1.13;;;26.00;29.30;;;;;;6126121;23;20033;-81
2022/04/16 13:16:12;;;;;;;2.15;0.98;;;25.90;29.20;;;;;;6126085;23;20109;-82
2022/04/16 13:53:55;;;;;;;4.47;2.15;;;27.60;28.10;;;;;;6180033;23;20413;-80